Greenland, Arkansas
Current Conditions -  °F | °C
As of 12:53 AM on Saturday 01 Nov 2014 (Local Time) from KFYV Reporting Station
Clear Clear  
Wind Chill: 30°   Ceiling: Unl
Heat Index: 30°   Visibility: 10mi
Dew Point: 23°   Wind: 0mph
Humidity: 75%   Direction: NA
Pressure: 30.41"   Gusts: NA
Location:  35.99°N, 94.18°W
Report Text: KFYV 010553Z AUTO 00000KT 10SM CLR M01/M05 A3041 RMK AO2 SLP302 T10111050 10061 21022 401111022 51002
Loading
Personal Weather Stations






























Interactive Weather Map
Tropical Storm Tracking
New forecast layout! Learn more

10-Day Weather Forecast

Advertisements
Track Severe Weather on mobile